createdAt,value
2023-03-24T00:00:54.163Z,93.74
2023-03-24T00:01:54.172Z,93.64
2023-03-24T00:02:54.327Z,93.74
2023-03-24T00:03:54.255Z,93.74
2023-03-24T00:04:54.141Z,93.85
2023-03-24T00:05:54.110Z,93.85
2023-03-24T00:06:54.161Z,93.74
2023-03-24T00:07:55.188Z,93.74
2023-03-24T00:08:54.068Z,93.74
2023-03-24T00:09:54.079Z,93.85
2023-03-24T00:10:54.050Z,93.85
2023-03-24T00:11:54.037Z,93.95
2023-03-24T00:12:54.068Z,93.85
2023-03-24T00:13:54.008Z,93.64
2023-03-24T00:14:54.014Z,93.64
2023-03-24T00:15:54.003Z,93.64
2023-03-24T00:16:54.024Z,93.44
2023-03-24T00:17:54.009Z,93.33
2023-03-24T00:18:54.462Z,93.24
2023-03-24T00:19:53.940Z,93.13
2023-03-24T00:20:53.919Z,93.03
2023-03-24T00:21:53.889Z,92.93
2023-03-24T00:22:53.899Z,92.83
2023-03-24T00:23:53.869Z,92.93
2023-03-24T00:24:53.864Z,92.83
2023-03-24T00:25:53.847Z,92.63
2023-03-24T00:26:53.848Z,92.63
2023-03-24T00:27:53.826Z,92.63
2023-03-24T00:28:53.845Z,92.63
2023-03-24T00:29:53.773Z,92.52
2023-03-24T00:30:53.828Z,92.52
2023-03-24T00:31:53.798Z,92.42
2023-03-24T00:32:53.899Z,92.42
2023-03-24T00:33:54.067Z,92.32
2023-03-24T00:34:53.754Z,92.32
2023-03-24T00:35:53.735Z,92.18
2023-03-24T00:36:53.714Z,92.18
2023-03-24T00:37:53.678Z,92.07
2023-03-24T00:38:53.754Z,92.01
2023-03-24T00:39:53.665Z,92.07
2023-03-24T00:40:53.681Z,92.07
2023-03-24T00:41:53.653Z,92.07
2023-03-24T00:42:53.655Z,92.07
2023-03-24T00:43:53.614Z,92.18
2023-03-24T00:44:53.628Z,92.27
2023-03-24T00:45:53.588Z,92.38
2023-03-24T00:46:53.620Z,92.48
2023-03-24T00:47:53.626Z,92.48
2023-03-24T00:48:53.550Z,92.48
2023-03-24T00:49:53.524Z,92.58
2023-03-24T00:50:53.558Z,92.79
2023-03-24T00:51:53.518Z,92.89
2023-03-24T00:52:53.563Z,92.99
2023-03-24T00:53:53.488Z,93.13
2023-03-24T00:54:53.500Z,93.24
2023-03-24T00:55:53.444Z,93.24
2023-03-24T00:56:53.506Z,93.24
2023-03-24T00:57:53.413Z,93.33
2023-03-24T00:58:53.423Z,93.44
2023-03-24T00:59:53.420Z,93.54
2023-03-24T01:00:53.486Z,93.54
2023-03-24T01:01:53.491Z,93.64
2023-03-24T01:02:53.731Z,93.64
2023-03-24T01:03:53.391Z,93.74
2023-03-24T01:04:53.346Z,93.74
2023-03-24T01:05:53.331Z,93.74
2023-03-24T01:06:53.330Z,93.74
2023-03-24T01:07:53.300Z,93.74
2023-03-24T01:08:53.347Z,93.74
2023-03-24T01:09:53.293Z,93.74
2023-03-24T01:10:53.373Z,93.74
2023-03-24T01:11:53.253Z,93.74
2023-03-24T01:12:53.259Z,93.74
2023-03-24T01:13:53.235Z,93.85
2023-03-24T01:14:53.211Z,93.85
2023-03-24T01:15:53.277Z,93.85
2023-03-24T01:16:53.195Z,93.85
2023-03-24T01:17:53.444Z,93.85
2023-03-24T01:18:53.168Z,93.85
2023-03-24T01:19:53.158Z,93.74
2023-03-24T01:20:53.169Z,93.54
2023-03-24T01:21:53.126Z,93.44
2023-03-24T01:22:53.159Z,93.33
2023-03-24T01:23:53.122Z,93.13
2023-03-24T01:24:53.082Z,93.03
2023-03-24T01:25:53.068Z,92.93
2023-03-24T01:26:53.085Z,92.93
2023-03-24T01:27:53.089Z,92.83
2023-03-24T01:28:53.028Z,92.79
2023-03-24T01:29:53.045Z,92.79
2023-03-24T01:30:53.001Z,92.89
2023-03-24T01:31:53.071Z,92.79
2023-03-24T01:32:53.132Z,92.89
2023-03-24T01:33:53.010Z,92.48
2023-03-24T01:34:52.978Z,92.27
2023-03-24T01:35:52.998Z,92.27
2023-03-24T01:36:52.939Z,92.27
2023-03-24T01:37:52.932Z,92.38
2023-03-24T01:38:52.942Z,92.27
2023-03-24T01:39:52.940Z,92.18
2023-03-24T01:40:52.912Z,92.18
2023-03-24T01:41:52.855Z,92.18
2023-03-24T01:42:52.910Z,92.27
2023-03-24T01:43:52.827Z,92.18
2023-03-24T01:44:52.850Z,92.18
2023-03-24T01:45:52.883Z,92.27
2023-03-24T01:46:52.800Z,92.68
2023-03-24T01:47:52.867Z,93.09
2023-03-24T01:48:52.831Z,93.29
2023-03-24T01:49:52.750Z,93.40
2023-03-24T01:50:52.783Z,93.40
2023-03-24T01:51:52.775Z,93.60
2023-03-24T01:52:52.754Z,93.70
2023-03-24T01:53:52.749Z,93.80
2023-03-24T01:54:52.719Z,93.85
2023-03-24T01:55:52.686Z,93.85
2023-03-24T01:56:52.727Z,93.85
2023-03-24T01:57:52.696Z,93.85
2023-03-24T01:58:52.656Z,93.85
2023-03-24T01:59:52.632Z,93.95
2023-03-24T02:00:52.677Z,93.95
2023-03-24T02:01:52.674Z,93.85
2023-03-24T02:02:52.646Z,93.74
2023-03-24T02:03:52.654Z,93.74
2023-03-24T02:04:52.579Z,93.74
2023-03-24T02:05:52.592Z,93.74
2023-03-24T02:06:52.570Z,93.74
2023-03-24T02:07:52.563Z,93.64
2023-03-24T02:08:52.523Z,93.44
2023-03-24T02:09:52.523Z,93.40
2023-03-24T02:10:52.508Z,93.29
2023-03-24T02:11:52.547Z,93.29
2023-03-24T02:12:52.495Z,93.40
2023-03-24T02:13:52.463Z,93.40
2023-03-24T02:14:52.524Z,93.29
2023-03-24T02:15:52.472Z,93.29
2023-03-24T02:16:52.447Z,93.29
2023-03-24T02:17:52.453Z,93.19
2023-03-24T02:18:52.387Z,93.09
2023-03-24T02:19:52.411Z,92.99
2023-03-24T02:20:52.395Z,92.89
2023-03-24T02:21:52.449Z,93.09
2023-03-24T02:22:52.368Z,92.99
2023-03-24T02:23:52.360Z,92.89
2023-03-24T02:24:52.335Z,92.79
2023-03-24T02:25:52.329Z,92.68
2023-03-24T02:26:52.311Z,92.68
2023-03-24T02:27:52.307Z,92.58
2023-03-24T02:28:52.263Z,92.58
2023-03-24T02:29:52.264Z,92.68
2023-03-24T02:30:52.239Z,92.58
2023-03-24T02:31:52.285Z,92.38
2023-03-24T02:32:52.309Z,92.18
2023-03-24T02:33:52.206Z,92.03
2023-03-24T02:34:52.216Z,92.13
2023-03-24T02:35:52.198Z,92.13
2023-03-24T02:36:52.196Z,92.03
2023-03-24T02:37:52.149Z,92.03
2023-03-24T02:38:52.182Z,92.03
2023-03-24T02:39:52.171Z,92.03
2023-03-24T02:40:52.105Z,92.03
2023-03-24T02:41:52.098Z,92.13
2023-03-24T02:42:52.082Z,92.13
2023-03-24T02:43:52.168Z,92.03
2023-03-24T02:44:52.135Z,92.03
2023-03-24T02:45:52.073Z,91.93
2023-03-24T02:46:52.029Z,91.93
2023-03-24T02:47:52.042Z,91.93
2023-03-24T02:48:52.036Z,91.83
2023-03-24T02:49:51.998Z,91.83
2023-03-24T02:50:51.969Z,91.83
2023-03-24T02:51:51.966Z,91.83
2023-03-24T02:52:51.978Z,91.83
2023-03-24T02:53:52.072Z,91.83
2023-03-24T02:54:51.949Z,91.83
2023-03-24T02:55:51.951Z,91.93
2023-03-24T02:56:51.933Z,91.93
2023-03-24T02:57:51.923Z,91.93
2023-03-24T02:58:51.928Z,91.83
2023-03-24T02:59:51.875Z,91.52
2023-03-24T03:00:51.864Z,91.42
2023-03-24T03:01:51.961Z,91.31
2023-03-24T03:02:52.010Z,91.42
2023-03-24T03:03:51.883Z,91.22
2023-03-24T03:04:51.816Z,91.11
2023-03-24T03:05:51.793Z,91.27
2023-03-24T03:06:51.790Z,91.31
2023-03-24T03:07:51.759Z,90.97
2023-03-24T03:08:51.747Z,90.86
2023-03-24T03:09:51.772Z,90.77
2023-03-24T03:10:51.792Z,90.66
2023-03-24T03:11:51.814Z,90.56
2023-03-24T03:12:51.709Z,90.56
2023-03-24T03:13:51.683Z,90.56
2023-03-24T03:14:55.448Z,90.56
2023-03-24T03:15:51.684Z,90.16
2023-03-24T03:16:51.692Z,90.16
2023-03-24T03:17:51.683Z,89.95
2023-03-24T03:18:59.428Z,90.05
2023-03-24T03:19:51.653Z,90.05
2023-03-24T03:20:51.580Z,90.05
2023-03-24T03:21:53.401Z,89.91
2023-03-24T03:22:51.570Z,89.81
2023-03-24T03:23:51.589Z,90.01
2023-03-24T03:24:51.585Z,90.42
2023-03-24T03:25:51.569Z,90.52
2023-03-24T03:26:51.547Z,90.31
2023-03-24T03:27:51.556Z,90.31
2023-03-24T03:28:51.515Z,90.42
2023-03-24T03:29:51.549Z,90.11
2023-03-24T03:30:51.479Z,90.22
2023-03-24T03:31:51.489Z,90.11
2023-03-24T03:32:51.505Z,90.11
2023-03-24T03:33:51.473Z,89.91
2023-03-24T03:34:51.429Z,90.01
2023-03-24T03:35:51.436Z,89.91
2023-03-24T03:36:51.424Z,89.61
2023-03-24T03:37:51.396Z,89.81
2023-03-24T03:38:51.371Z,89.70
2023-03-24T03:39:51.412Z,89.61
2023-03-24T03:40:51.337Z,89.61
2023-03-24T03:41:51.367Z,89.70
2023-03-24T03:42:51.340Z,89.70
2023-03-24T03:43:51.317Z,89.61
2023-03-24T03:44:51.308Z,89.61
2023-03-24T03:45:51.315Z,89.70
2023-03-24T03:46:51.329Z,89.70
2023-03-24T03:47:51.313Z,89.50
2023-03-24T03:48:51.244Z,89.61
2023-03-24T03:49:51.253Z,89.50
2023-03-24T03:50:59.856Z,89.40
2023-03-24T03:51:52.255Z,89.40
2023-03-24T03:52:51.189Z,89.30
2023-03-24T03:53:51.210Z,89.40
2023-03-24T03:54:51.196Z,89.50
2023-03-24T03:55:51.146Z,89.40
2023-03-24T03:56:51.144Z,89.61
2023-03-24T03:57:51.173Z,89.70
2023-03-24T03:58:51.121Z,89.61
2023-03-24T03:59:51.111Z,89.70
2023-03-24T04:00:51.136Z,89.70
2023-03-24T04:01:51.132Z,89.61
2023-03-24T04:02:51.164Z,89.81
2023-03-24T04:03:51.120Z,89.81
2023-03-24T04:04:59.807Z,89.91
2023-03-24T04:05:52.050Z,89.91
2023-03-24T04:06:51.005Z,89.91
2023-03-24T04:07:51.038Z,90.22
2023-03-24T04:08:51.002Z,90.11
2023-03-24T04:09:50.971Z,90.11
2023-03-24T04:10:50.975Z,90.01
2023-03-24T04:11:50.972Z,90.01
2023-03-24T04:12:50.928Z,89.91
2023-03-24T04:13:50.980Z,90.01
2023-03-24T04:14:50.886Z,89.91
2023-03-24T04:15:50.925Z,89.91
2023-03-24T04:16:50.867Z,89.70
2023-03-24T04:17:50.991Z,89.70
2023-03-24T04:18:50.877Z,89.70
2023-03-24T04:19:50.872Z,89.61
2023-03-24T04:20:50.857Z,89.50
2023-03-24T04:21:50.818Z,89.40
2023-03-24T04:22:50.786Z,89.20
2023-03-24T04:23:50.877Z,89.09
2023-03-24T04:24:50.774Z,88.79
2023-03-24T04:25:50.776Z,88.75
2023-03-24T04:26:50.735Z,88.75
2023-03-24T04:27:50.757Z,88.85
2023-03-24T04:28:50.754Z,88.75
2023-03-24T04:29:50.718Z,89.15
2023-03-24T04:30:50.725Z,89.30
2023-03-24T04:31:50.847Z,89.05
2023-03-24T04:32:50.760Z,88.95
2023-03-24T04:33:50.675Z,88.75
2023-03-24T04:34:50.675Z,88.75
2023-03-24T04:35:50.690Z,88.75
2023-03-24T04:36:50.709Z,89.05
2023-03-24T04:37:50.619Z,89.26
2023-03-24T04:38:50.602Z,88.85
2023-03-24T04:39:50.597Z,89.05
2023-03-24T04:40:50.582Z,89.15
2023-03-24T04:41:50.609Z,89.46
2023-03-24T04:42:50.530Z,90.07
2023-03-24T04:43:50.531Z,90.48
2023-03-24T04:44:50.526Z,90.92
2023-03-24T04:45:50.596Z,90.92
2023-03-24T04:46:50.487Z,91.33
2023-03-24T04:47:50.498Z,91.64
2023-03-24T04:48:50.481Z,91.84
2023-03-24T04:49:50.519Z,91.43
2023-03-24T04:50:50.471Z,91.84
2023-03-24T04:51:50.460Z,91.48
2023-03-24T04:52:50.416Z,91.38
2023-03-24T04:53:50.417Z,91.68
2023-03-24T04:54:50.397Z,91.48
2023-03-24T04:55:50.473Z,91.58
2023-03-24T04:56:50.369Z,91.78
2023-03-24T04:57:50.377Z,91.58
2023-03-24T04:58:50.346Z,91.58
2023-03-24T04:59:50.379Z,92.09
2023-03-24T05:00:50.334Z,92.23
2023-03-24T05:01:50.421Z,92.44
2023-03-24T05:02:50.323Z,92.33
2023-03-24T05:03:50.334Z,92.54
2023-03-24T05:04:50.300Z,92.64
2023-03-24T05:05:50.244Z,92.84
2023-03-24T05:06:50.296Z,92.74
2023-03-24T05:07:50.220Z,92.74
2023-03-24T05:08:50.215Z,92.64
2023-03-24T05:09:50.216Z,92.44
2023-03-24T05:10:50.199Z,92.54
2023-03-24T05:11:50.157Z,92.44
2023-03-24T05:12:50.195Z,92.33
2023-03-24T05:13:50.173Z,92.23
2023-03-24T05:14:50.102Z,92.03
2023-03-24T05:15:50.130Z,91.97
2023-03-24T05:16:50.142Z,91.56
2023-03-24T05:17:50.158Z,90.95
2023-03-24T05:18:50.049Z,91.16
2023-03-24T05:19:50.093Z,91.26
2023-03-24T05:20:50.053Z,91.05
2023-03-24T05:21:50.052Z,91.16
2023-03-24T05:22:50.050Z,91.16
2023-03-24T05:23:50.027Z,90.55
2023-03-24T05:24:50.022Z,90.24
2023-03-24T05:25:49.973Z,90.03
2023-03-24T05:26:49.967Z,90.03
2023-03-24T05:27:49.981Z,90.14
2023-03-24T05:28:49.938Z,90.03
2023-03-24T05:29:49.928Z,89.97
2023-03-24T05:30:49.979Z,89.67
2023-03-24T05:31:49.911Z,89.67
2023-03-24T05:32:49.922Z,89.67
2023-03-24T05:33:49.913Z,89.77
2023-03-24T05:34:49.905Z,89.36
2023-03-24T05:35:49.861Z,89.16
2023-03-24T05:36:49.853Z,89.26
2023-03-24T05:37:49.875Z,89.57
2023-03-24T05:38:49.849Z,89.47
2023-03-24T05:39:49.817Z,89.47
2023-03-24T05:40:49.780Z,89.77
2023-03-24T05:41:49.776Z,89.97
2023-03-24T05:42:49.741Z,89.67
2023-03-24T05:43:49.755Z,88.96
2023-03-24T05:44:50.919Z,89.16
2023-03-24T05:45:49.812Z,89.47
2023-03-24T05:46:49.735Z,89.30
2023-03-24T05:47:49.752Z,88.79
2023-03-24T05:48:49.720Z,88.69
2023-03-24T05:49:49.718Z,88.39
2023-03-24T05:50:49.639Z,87.47
2023-03-24T05:51:49.641Z,86.76
2023-03-24T05:52:49.665Z,86.39
2023-03-24T05:53:49.622Z,86.65
2023-03-24T05:54:49.639Z,86.18
2023-03-24T05:55:49.602Z,85.88
2023-03-24T05:56:49.580Z,86.18
2023-03-24T05:57:49.562Z,85.88
2023-03-24T05:58:49.548Z,85.98
2023-03-24T05:59:49.548Z,86.08
2023-03-24T06:00:49.580Z,85.77
2023-03-24T06:01:49.546Z,85.57
2023-03-24T06:02:49.604Z,86.18
2023-03-24T06:03:49.708Z,86.08
2023-03-24T06:04:49.572Z,85.98
2023-03-24T06:05:49.515Z,86.18
2023-03-24T06:06:49.445Z,85.98
2023-03-24T06:07:49.453Z,86.08
2023-03-24T06:08:49.473Z,86.08
2023-03-24T06:09:49.410Z,86.49
2023-03-24T06:10:49.486Z,86.69
2023-03-24T06:11:49.399Z,86.73
2023-03-24T06:12:49.384Z,87.14
2023-03-24T06:13:49.353Z,87.65
2023-03-24T06:14:49.347Z,88.06
2023-03-24T06:15:49.514Z,88.37
2023-03-24T06:16:49.337Z,88.57
2023-03-24T06:17:49.373Z,88.47
2023-03-24T06:18:49.309Z,88.47
2023-03-24T06:19:49.306Z,88.67
2023-03-24T06:20:49.293Z,88.57
2023-03-24T06:21:49.274Z,88.78
2023-03-24T06:22:49.248Z,88.88
2023-03-24T06:23:49.224Z,89.12
2023-03-24T06:24:49.255Z,89.12
2023-03-24T06:25:49.202Z,88.61
2023-03-24T06:26:49.190Z,88.51
2023-03-24T06:27:49.209Z,88.10
2023-03-24T06:28:49.187Z,88.10
2023-03-24T06:29:49.164Z,87.59
2023-03-24T06:30:49.232Z,87.49
2023-03-24T06:31:49.148Z,87.38
2023-03-24T06:32:49.195Z,87.08
2023-03-24T06:33:49.097Z,86.88
2023-03-24T06:34:49.135Z,87.08
2023-03-24T06:35:49.087Z,87.29
2023-03-24T06:36:49.094Z,86.57
2023-03-24T06:37:49.083Z,86.26
2023-03-24T06:38:50.832Z,85.96
2023-03-24T06:39:49.088Z,86.06
2023-03-24T06:40:49.056Z,86.30
2023-03-24T06:41:49.045Z,86.30
2023-03-24T06:42:49.059Z,86.71
2023-03-24T06:43:48.973Z,86.30
2023-03-24T06:44:49.047Z,86.41
2023-03-24T06:45:49.216Z,86.30
2023-03-24T06:46:49.023Z,86.00
2023-03-24T06:47:48.975Z,86.30
2023-03-24T06:48:48.962Z,86.51
2023-03-24T06:49:48.904Z,86.10
2023-03-24T06:50:48.989Z,86.00
2023-03-24T06:51:48.865Z,85.89
2023-03-24T06:52:48.872Z,85.69
2023-03-24T06:53:48.877Z,85.79
2023-03-24T06:54:48.901Z,86.41
2023-03-24T06:55:48.830Z,86.41
2023-03-24T06:56:48.924Z,86.41
2023-03-24T06:57:48.790Z,86.35
2023-03-24T06:58:48.795Z,86.04
2023-03-24T06:59:49.148Z,86.04
2023-03-24T07:00:48.805Z,86.04
2023-03-24T07:01:48.762Z,86.04
2023-03-24T07:02:48.838Z,86.24
2023-03-24T07:03:48.799Z,86.76
2023-03-24T07:04:48.735Z,87.06
2023-03-24T07:05:48.705Z,86.85
2023-03-24T07:07:02.008Z,86.55
2023-03-24T07:08:48.669Z,85.32
2023-03-24T07:09:48.670Z,85.63
2023-03-24T07:10:48.660Z,85.83
2023-03-24T07:11:48.629Z,85.83
2023-03-24T07:12:48.700Z,85.63
2023-03-24T07:13:48.601Z,85.32
2023-03-24T07:14:48.607Z,84.81
2023-03-24T07:15:48.579Z,84.91
2023-03-24T07:16:48.580Z,85.22
2023-03-24T07:17:48.597Z,85.12
2023-03-24T07:18:48.543Z,84.71
2023-03-24T07:19:48.529Z,84.81
2023-03-24T07:20:48.538Z,85.02
2023-03-24T07:21:48.505Z,85.12
2023-03-24T07:22:48.501Z,84.30
2023-03-24T07:23:48.485Z,84.61
2023-03-24T07:24:48.472Z,84.91
2023-03-24T07:25:48.419Z,85.12
2023-03-24T07:26:48.435Z,85.42
2023-03-24T07:27:48.432Z,85.53
2023-03-24T07:28:48.421Z,84.81
2023-03-24T07:29:48.407Z,84.81
2023-03-24T07:30:48.425Z,84.91
2023-03-24T07:31:48.384Z,84.81
2023-03-24T07:32:48.385Z,84.71
2023-03-24T07:33:48.333Z,84.81
2023-03-24T07:34:48.402Z,85.02
2023-03-24T07:35:48.690Z,85.12
2023-03-24T07:36:48.363Z,85.22
2023-03-24T07:37:48.271Z,85.42
2023-03-24T07:38:48.299Z,85.63
2023-03-24T07:39:48.247Z,85.12
2023-03-24T07:40:48.295Z,85.12
2023-03-24T07:41:48.249Z,85.18
2023-03-24T07:42:48.234Z,85.38
2023-03-24T07:43:48.227Z,85.18
2023-03-24T07:44:48.214Z,85.08
2023-03-24T07:45:48.515Z,84.77
2023-03-24T07:46:48.202Z,84.67
2023-03-24T07:47:48.183Z,84.77
2023-03-24T07:48:48.164Z,84.16
2023-03-24T07:49:48.248Z,84.16
2023-03-24T07:50:48.140Z,84.36
2023-03-24T07:51:48.088Z,84.16
2023-03-24T07:52:48.095Z,84.47
2023-03-24T07:53:48.090Z,83.75
2023-03-24T07:54:48.069Z,84.06
2023-03-24T07:55:48.739Z,84.57
2023-03-24T07:56:48.100Z,84.63
2023-03-24T07:57:48.098Z,84.53
2023-03-24T07:58:48.100Z,84.01
2023-03-24T07:59:48.007Z,83.92
2023-03-24T08:00:48.282Z,83.61
2023-03-24T08:01:48.804Z,83.30
2023-03-24T08:02:48.129Z,83.51
2023-03-24T08:03:48.111Z,83.92
2023-03-24T08:04:47.995Z,83.92
2023-03-24T08:05:48.123Z,82.79
2023-03-24T08:06:47.910Z,83.40
2023-03-24T08:07:47.923Z,83.71
2023-03-24T08:08:47.909Z,83.92
2023-03-24T08:09:47.854Z,83.92
2023-03-24T08:10:47.958Z,83.81
2023-03-24T08:11:47.980Z,83.98
2023-03-24T08:12:47.879Z,84.49
2023-03-24T08:13:47.879Z,82.35
2023-03-24T08:14:47.827Z,82.45
2023-03-24T08:15:47.934Z,83.06
2023-03-24T08:16:47.813Z,82.69
2023-03-24T08:17:47.839Z,82.39
2023-03-24T08:18:47.774Z,83.10
2023-03-24T08:19:58.841Z,82.39
2023-03-24T08:20:48.733Z,82.39
2023-03-24T08:21:47.716Z,82.59
2023-03-24T08:22:47.714Z,83.00
2023-03-24T08:23:47.697Z,82.59
2023-03-24T08:24:47.936Z,83.10
2023-03-24T08:25:47.909Z,83.30
2023-03-24T08:26:47.674Z,82.96
2023-03-24T08:27:47.617Z,83.06
2023-03-24T08:28:47.628Z,82.41
2023-03-24T08:29:47.644Z,82.31
2023-03-24T08:30:47.866Z,82.31
2023-03-24T08:31:47.600Z,82.47
2023-03-24T08:32:47.631Z,82.33
2023-03-24T08:33:47.576Z,81.62
2023-03-24T08:34:47.652Z,81.48
2023-03-24T08:35:47.923Z,80.26
2023-03-24T08:36:47.521Z,80.05
2023-03-24T08:37:47.494Z,79.64
2023-03-24T08:38:47.507Z,79.95
2023-03-24T08:39:47.467Z,79.44
2023-03-24T08:40:47.547Z,79.38
2023-03-24T08:41:47.458Z,78.97
2023-03-24T08:42:47.466Z,79.48
2023-03-24T08:43:47.412Z,79.17
2023-03-24T08:44:47.448Z,79.17
2023-03-24T08:45:47.593Z,79.14
2023-03-24T08:46:47.437Z,79.17
2023-03-24T08:47:47.437Z,78.73
2023-03-24T08:48:47.368Z,78.26
2023-03-24T08:49:47.358Z,77.85
2023-03-24T08:50:47.347Z,78.36
2023-03-24T08:51:47.358Z,78.46
2023-03-24T08:52:47.339Z,78.50
2023-03-24T08:53:47.328Z,78.97
2023-03-24T08:54:47.303Z,79.07
2023-03-24T08:55:47.474Z,79.38
2023-03-24T08:56:47.292Z,79.89
2023-03-24T08:57:47.260Z,79.38
2023-03-24T08:58:47.230Z,79.32
2023-03-24T08:59:48.112Z,79.72
2023-03-24T09:00:47.249Z,79.82
2023-03-24T09:01:47.220Z,79.41
2023-03-24T09:02:47.221Z,79.21
2023-03-24T09:03:47.184Z,79.93
2023-03-24T09:04:47.245Z,79.41
2023-03-24T09:05:47.155Z,79.41
2023-03-24T09:06:47.173Z,79.32
2023-03-24T09:07:47.131Z,78.39
2023-03-24T09:08:47.124Z,78.70
2023-03-24T09:09:47.128Z,78.09
2023-03-24T09:10:47.244Z,78.60
2023-03-24T09:11:47.092Z,78.60
2023-03-24T09:12:47.077Z,78.56
2023-03-24T09:13:47.051Z,78.97
2023-03-24T09:14:47.040Z,78.36
2023-03-24T09:15:47.239Z,77.03
2023-03-24T09:16:47.019Z,76.93
2023-03-24T09:17:47.011Z,76.73
2023-03-24T09:18:47.723Z,77.61
2023-03-24T09:19:46.966Z,76.79
2023-03-24T09:20:47.302Z,76.69
2023-03-24T09:21:46.961Z,76.18
2023-03-24T09:22:46.968Z,76.28
2023-03-24T09:23:46.896Z,77.00
2023-03-24T09:24:46.885Z,77.00
2023-03-24T09:25:47.273Z,76.86
2023-03-24T09:26:46.869Z,76.25
2023-03-24T09:27:46.871Z,76.62
2023-03-24T09:28:46.859Z,76.99
2023-03-24T09:29:46.804Z,76.28
2023-03-24T09:30:46.965Z,74.24
2023-03-24T09:31:46.860Z,71.91
2023-03-24T09:32:46.940Z,72.62
2023-03-24T09:33:46.779Z,72.31
2023-03-24T09:34:46.784Z,72.41
2023-03-24T09:35:46.771Z,72.11
2023-03-24T09:36:46.755Z,73.06
2023-03-24T09:37:46.730Z,73.84
2023-03-24T09:38:46.738Z,71.53
2023-03-24T09:39:46.687Z,72.75
2023-03-24T09:40:46.914Z,73.26
2023-03-24T09:41:46.684Z,73.57
2023-03-24T09:42:46.835Z,75.09
2023-03-24T09:43:46.716Z,74.38
2023-03-24T09:44:46.806Z,74.15
2023-03-24T09:45:46.849Z,74.15
2023-03-24T09:46:46.721Z,74.96
2023-03-24T09:47:46.652Z,74.04
2023-03-24T09:48:46.610Z,73.74
2023-03-24T09:49:46.557Z,73.13
2023-03-24T09:50:46.630Z,74.82
2023-03-24T09:51:46.625Z,74.92
2023-03-24T09:52:46.531Z,75.19
2023-03-24T09:53:46.557Z,74.58
2023-03-24T09:54:46.526Z,73.02
2023-03-24T09:55:46.678Z,73.94
2023-03-24T09:56:47.283Z,72.25
2023-03-24T09:57:46.514Z,72.65
2023-03-24T09:58:46.477Z,72.14
2023-03-24T09:59:46.489Z,72.34
2023-03-24T10:00:46.670Z,72.65
2023-03-24T10:01:46.549Z,73.26
2023-03-24T10:02:46.679Z,71.84
2023-03-24T10:03:46.557Z,71.47
2023-03-24T10:04:46.494Z,72.55
2023-03-24T10:05:46.779Z,72.96
2023-03-24T10:06:46.355Z,72.04
2023-03-24T10:07:46.340Z,70.01
2023-03-24T10:08:46.330Z,70.99
2023-03-24T10:09:46.337Z,71.91
2023-03-24T10:10:46.484Z,69.84
2023-03-24T10:11:46.283Z,70.45
2023-03-24T10:12:46.282Z,69.81
2023-03-24T10:13:46.274Z,71.33
2023-03-24T10:14:46.274Z,72.55
2023-03-24T10:15:46.245Z,71.13
2023-03-24T10:16:46.304Z,72.04
2023-03-24T10:17:46.217Z,72.45
2023-03-24T10:18:46.190Z,71.64
2023-03-24T10:19:46.190Z,71.03
2023-03-24T10:20:46.215Z,71.94
2023-03-24T10:21:46.190Z,70.65
2023-03-24T10:22:46.168Z,70.79
2023-03-24T10:23:46.134Z,71.80
2023-03-24T10:24:46.105Z,72.31
2023-03-24T10:25:46.492Z,73.74
2023-03-24T10:26:46.113Z,71.80
2023-03-24T10:27:46.125Z,71.80
2023-03-24T10:28:46.090Z,71.80
2023-03-24T10:29:46.084Z,71.50
2023-03-24T10:30:48.141Z,72.72
2023-03-24T10:31:46.046Z,71.50
2023-03-24T10:32:46.054Z,72.31
2023-03-24T10:33:46.031Z,70.99
2023-03-24T10:34:45.998Z,72.58
2023-03-24T10:35:46.082Z,70.55
2023-03-24T10:36:45.989Z,69.87
2023-03-24T10:37:45.979Z,70.48
2023-03-24T10:38:45.944Z,72.31
2023-03-24T10:39:45.955Z,71.50
2023-03-24T10:40:45.925Z,71.88
2023-03-24T10:41:45.934Z,70.04
2023-03-24T10:42:45.905Z,70.86
2023-03-24T10:43:45.924Z,71.36
2023-03-24T10:44:45.884Z,70.65
2023-03-24T10:45:46.025Z,70.79
2023-03-24T10:46:45.823Z,71.09
2023-03-24T10:47:45.977Z,70.68
2023-03-24T10:48:45.854Z,69.67
2023-03-24T10:49:45.834Z,69.98
2023-03-24T10:50:45.849Z,70.38
2023-03-24T10:51:45.813Z,70.59
2023-03-24T10:52:45.870Z,70.92
2023-03-24T10:53:45.898Z,71.53
2023-03-24T10:54:45.916Z,70.82
2023-03-24T10:55:45.866Z,71.40
2023-03-24T10:56:45.742Z,70.68
2023-03-24T10:57:45.729Z,72.11
2023-03-24T10:58:45.703Z,71.06
2023-03-24T10:59:45.714Z,71.88
2023-03-24T11:00:45.655Z,71.03
2023-03-24T11:01:45.778Z,69.30
2023-03-24T11:02:45.695Z,68.49
2023-03-24T11:03:45.686Z,70.01
2023-03-24T11:04:45.620Z,69.60
2023-03-24T11:05:45.622Z,69.91
2023-03-24T11:06:45.587Z,70.42
2023-03-24T11:07:45.592Z,70.72
2023-03-24T11:08:45.590Z,70.01
2023-03-24T11:09:45.606Z,68.39
2023-03-24T11:10:45.553Z,69.23
2023-03-24T11:11:45.578Z,69.84
2023-03-24T11:12:45.502Z,69.03
2023-03-24T11:13:45.510Z,68.93
2023-03-24T11:14:45.495Z,69.03
2023-03-24T11:15:45.502Z,68.93
2023-03-24T11:16:45.475Z,70.25
2023-03-24T11:17:45.465Z,70.25
2023-03-24T11:18:45.464Z,68.19
2023-03-24T11:19:45.464Z,68.90
2023-03-24T11:20:45.402Z,69.51
2023-03-24T11:21:45.417Z,69.37
2023-03-24T11:22:45.349Z,68.87
2023-03-24T11:23:45.391Z,68.63
2023-03-24T11:24:45.341Z,69.24
2023-03-24T11:25:45.346Z,69.54
2023-03-24T11:26:45.332Z,67.92
2023-03-24T11:27:45.401Z,67.34
2023-03-24T11:28:45.316Z,68.35
2023-03-24T11:29:45.352Z,69.03
2023-03-24T11:30:46.016Z,68.73
2023-03-24T11:31:45.286Z,67.55
2023-03-24T11:32:45.348Z,68.66
2023-03-24T11:33:45.239Z,69.27
2023-03-24T11:34:45.267Z,69.95
2023-03-24T11:35:50.376Z,67.92
2023-03-24T11:36:47.545Z,68.12
2023-03-24T11:37:45.201Z,68.52
2023-03-24T11:38:45.198Z,66.70
2023-03-24T11:39:45.167Z,66.77
2023-03-24T11:40:45.146Z,66.88
2023-03-24T11:41:45.140Z,66.40
2023-03-24T11:42:46.041Z,66.70
2023-03-24T11:43:45.136Z,66.09
2023-03-24T11:44:45.088Z,65.89
2023-03-24T11:45:45.112Z,65.69
2023-03-24T11:46:45.157Z,65.42
2023-03-24T11:47:45.091Z,66.23
2023-03-24T11:48:45.028Z,66.83
2023-03-24T11:49:45.041Z,65.11
2023-03-24T11:50:45.000Z,65.42
2023-03-24T11:51:44.992Z,65.21
2023-03-24T11:52:44.982Z,65.11
2023-03-24T11:53:44.986Z,66.50
2023-03-24T11:54:44.967Z,65.28
2023-03-24T11:55:44.954Z,65.36
2023-03-24T11:56:44.989Z,66.16
2023-03-24T11:57:44.936Z,66.44
2023-03-24T11:58:44.888Z,64.51
2023-03-24T11:59:44.943Z,65.05
2023-03-24T12:00:44.898Z,66.06
2023-03-24T12:01:44.894Z,65.83
2023-03-24T12:02:44.902Z,66.24
2023-03-24T12:03:44.926Z,64.51
2023-03-24T12:04:44.839Z,65.05
2023-03-24T12:05:44.835Z,63.93
2023-03-24T12:06:44.798Z,64.34
2023-03-24T12:07:44.824Z,64.67
2023-03-24T12:08:44.768Z,64.67
2023-03-24T12:09:44.832Z,64.98
2023-03-24T12:10:44.762Z,65.52
2023-03-24T12:11:44.748Z,66.09
2023-03-24T12:12:44.775Z,66.19
2023-03-24T12:13:44.709Z,65.39
2023-03-24T12:14:44.764Z,66.70
2023-03-24T12:15:44.715Z,65.48
2023-03-24T12:16:44.724Z,64.37
2023-03-24T12:17:44.754Z,64.58
2023-03-24T12:18:44.636Z,64.47
2023-03-24T12:19:44.640Z,64.47
2023-03-24T12:20:44.618Z,63.76
2023-03-24T12:21:44.645Z,64.58
2023-03-24T12:22:44.588Z,63.96
2023-03-24T12:23:44.582Z,63.96
2023-03-24T12:24:44.580Z,64.17
2023-03-24T12:25:44.570Z,64.58
2023-03-24T12:26:44.528Z,63.76
2023-03-24T12:27:44.532Z,63.86
2023-03-24T12:28:44.514Z,63.76
2023-03-24T12:29:44.502Z,62.85
2023-03-24T12:30:44.504Z,63.35
2023-03-24T12:31:44.575Z,63.73
2023-03-24T12:32:44.549Z,63.63
2023-03-24T12:33:44.463Z,61.80
2023-03-24T12:34:44.449Z,62.69
2023-03-24T12:35:44.483Z,62.49
2023-03-24T12:36:44.406Z,62.66
2023-03-24T12:37:44.426Z,61.35
2023-03-24T12:38:44.397Z,61.24
2023-03-24T12:39:44.361Z,60.43
2023-03-24T12:40:44.376Z,60.13
2023-03-24T12:41:44.380Z,60.23
2023-03-24T12:42:44.342Z,60.94
2023-03-24T12:43:44.336Z,62.05
2023-03-24T12:44:44.320Z,60.97
2023-03-24T12:45:44.356Z,62.29
2023-03-24T12:46:48.436Z,61.88
2023-03-24T12:47:45.347Z,61.60
2023-03-24T12:48:44.266Z,61.80
2023-03-24T12:49:44.243Z,63.53
2023-03-24T12:50:44.224Z,63.23
2023-03-24T12:51:44.230Z,62.72
2023-03-24T12:52:45.895Z,63.32
2023-03-24T12:53:44.193Z,62.89